Legend :    VFR   Marginal VFR   IFR   Intensive IFR   Very Intensive IFR
Visi :
Ceiling :
>= 8 km
>= 3000ft
5 to 8 km
1000 to 3000 ft
1500m to 5 km
500 to 1000 ft
800 to 1500m
200 to 500 ft
< 800m
< 200 ft
Symbols :   Thunderstorms  Fog  Heavy snow  Heavy precipitations  Wind > 20 kt






- Airport Elevation : 1333 ft
- IATA code : ICT


KICT - Wichita Mid Continent

CURRENT METAR :
  • 282153Z 32008KT 10SM SCT075 SCT130 BKN150 24/16 A3016 RMK AO2 RAE16 SLP203 P0000 T02440156

EXPIRED METARs :
  • 282053Z 08005KT 10SM -RA FEW037 SCT075 BKN110 24/17 A3014 RMK AO2 RAB49 SLP195 P0000 60000 T02390167 56014
  • 281953Z 17007KT 10SM SCT100 BKN150 BKN200 24/16 A3015 RMK AO2 SLP201 T02390161
  • 281853Z 16010KT 10SM FEW120 BKN150 BKN200 23/14 A3016 RMK AO2 SLP202 T02330144
  • 281753Z 11007KT 10SM FEW120 SCT150 BKN200 23/14 A3018 RMK AO2 SLP209 VIRGA SE-S 60000 T02330144 10233 20178 55005

TAF KICT
Valid from the 28 at 21:00 until the 29 at 18:00 UTC


282059Z 2821/2918 11008KT P6SM VCSH OVC090
TEMPO 2821/2824 6SM SHRA BR BKN035
FM290000 14008KT P6SM FEW110
FM291100 07007KT P6SM SCT100
FM291500 10010KT P6SM SCT060
KZKC FIR / North America


LOGIN :  

Disclaimer |     EN      FR      IT 



MET'MAP, your aeronautical weather chart ! - Copyright ORBIFLY December 2007 - Disclaimer


ORBIFLY MET'MAP TEAM :

Programming & Development : Alexandra Zaïnal
Original concept : Baudouin d'Aumeries
Technical & hardware support : Manuel Goepfert
Assistance : Marc-Olivier Méhu




SOURCES & CREDITS :

   NOAA       Earth
Advisory